sensor_id;sensor_type;location;lat;lon;timestamp;P1;durP1;ratioP1;P2;durP2;ratioP2
75890;SDS011;64571;47.512;19.054;2023-05-10T00:01:22;8.05;;;3.20;;
75890;SDS011;64571;47.512;19.054;2023-05-10T00:04:24;8.25;;;3.28;;
75890;SDS011;64571;47.512;19.054;2023-05-10T00:07:29;6.13;;;2.83;;
75890;SDS011;64571;47.512;19.054;2023-05-10T00:10:31;7.47;;;3.08;;
75890;SDS011;64571;47.512;19.054;2023-05-10T00:13:34;10.32;;;3.25;;
75890;SDS011;64571;47.512;19.054;2023-05-10T00:16:37;8.05;;;3.00;;
75890;SDS011;64571;47.512;19.054;2023-05-10T00:19:39;8.70;;;3.55;;
75890;SDS011;64571;47.512;19.054;2023-05-10T00:22:42;6.93;;;3.17;;
75890;SDS011;64571;47.512;19.054;2023-05-10T00:25:44;8.00;;;3.20;;
75890;SDS011;64571;47.512;19.054;2023-05-10T00:28:47;7.55;;;3.10;;
75890;SDS011;64571;47.512;19.054;2023-05-10T00:31:49;7.07;;;3.12;;
75890;SDS011;64571;47.512;19.054;2023-05-10T00:34:52;8.88;;;3.12;;
75890;SDS011;64571;47.512;19.054;2023-05-10T00:37:54;7.40;;;3.37;;
75890;SDS011;64571;47.512;19.054;2023-05-10T00:40:57;6.55;;;3.25;;
75890;SDS011;64571;47.512;19.054;2023-05-10T00:44:00;6.57;;;3.25;;
75890;SDS011;64571;47.512;19.054;2023-05-10T00:47:04;8.68;;;3.53;;
75890;SDS011;64571;47.512;19.054;2023-05-10T00:50:07;7.45;;;3.37;;
75890;SDS011;64571;47.512;19.054;2023-05-10T00:53:11;9.50;;;3.40;;
75890;SDS011;64571;47.512;19.054;2023-05-10T00:56:13;10.63;;;3.37;;
75890;SDS011;64571;47.512;19.054;2023-05-10T00:59:18;11.45;;;3.90;;
75890;SDS011;64571;47.512;19.054;2023-05-10T01:02:21;6.65;;;3.08;;
75890;SDS011;64571;47.512;19.054;2023-05-10T01:05:24;7.93;;;3.62;;
75890;SDS011;64571;47.512;19.054;2023-05-10T01:08:27;7.23;;;2.87;;
75890;SDS011;64571;47.512;19.054;2023-05-10T01:11:30;6.60;;;3.22;;
75890;SDS011;64571;47.512;19.054;2023-05-10T01:14:33;7.93;;;3.53;;
75890;SDS011;64571;47.512;19.054;2023-05-10T01:17:39;7.80;;;3.22;;
75890;SDS011;64571;47.512;19.054;2023-05-10T01:20:44;7.57;;;3.17;;
75890;SDS011;64571;47.512;19.054;2023-05-10T01:24:09;7.20;;;3.40;;
75890;SDS011;64571;47.512;19.054;2023-05-10T01:34:32;6.37;;;3.28;;
75890;SDS011;64571;47.512;19.054;2023-05-10T01:37:40;5.95;;;3.12;;
75890;SDS011;64571;47.512;19.054;2023-05-10T01:50:41;7.25;;;3.62;;
75890;SDS011;64571;47.512;19.054;2023-05-10T01:53:47;9.07;;;3.60;;
75890;SDS011;64571;47.512;19.054;2023-05-10T01:56:59;7.53;;;3.50;;
75890;SDS011;64571;47.512;19.054;2023-05-10T02:00:07;7.55;;;3.20;;
75890;SDS011;64571;47.512;19.054;2023-05-10T02:03:15;10.23;;;3.45;;
75890;SDS011;64571;47.512;19.054;2023-05-10T02:06:20;7.05;;;3.67;;
75890;SDS011;64571;47.512;19.054;2023-05-10T02:09:26;7.47;;;3.50;;
75890;SDS011;64571;47.512;19.054;2023-05-10T02:12:32;6.77;;;3.27;;
75890;SDS011;64571;47.512;19.054;2023-05-10T02:15:38;6.90;;;3.67;;
75890;SDS011;64571;47.512;19.054;2023-05-10T02:18:43;6.40;;;3.50;;
75890;SDS011;64571;47.512;19.054;2023-05-10T02:21:47;7.55;;;3.65;;
75890;SDS011;64571;47.512;19.054;2023-05-10T02:24:56;10.85;;;3.40;;
75890;SDS011;64571;47.512;19.054;2023-05-10T02:28:03;9.10;;;3.47;;
75890;SDS011;64571;47.512;19.054;2023-05-10T02:31:10;6.12;;;3.28;;
75890;SDS011;64571;47.512;19.054;2023-05-10T02:34:13;7.62;;;3.60;;
75890;SDS011;64571;47.512;19.054;2023-05-10T02:37:16;7.00;;;3.50;;
75890;SDS011;64571;47.512;19.054;2023-05-10T02:40:21;8.90;;;3.50;;
75890;SDS011;64571;47.512;19.054;2023-05-10T02:43:27;8.50;;;3.63;;
75890;SDS011;64571;47.512;19.054;2023-05-10T02:46:32;6.97;;;3.60;;
75890;SDS011;64571;47.512;19.054;2023-05-10T02:49:36;7.82;;;3.55;;
75890;SDS011;64571;47.512;19.054;2023-05-10T02:52:42;7.28;;;3.60;;
75890;SDS011;64571;47.512;19.054;2023-05-10T02:55:49;8.68;;;3.95;;
75890;SDS011;64571;47.512;19.054;2023-05-10T02:58:54;6.50;;;3.50;;
75890;SDS011;64571;47.512;19.054;2023-05-10T03:01:58;8.02;;;3.67;;
75890;SDS011;64571;47.512;19.054;2023-05-10T03:05:05;8.52;;;4.20;;
75890;SDS011;64571;47.512;19.054;2023-05-10T03:08:08;10.35;;;3.70;;
75890;SDS011;64571;47.512;19.054;2023-05-10T03:11:32;7.90;;;3.87;;
75890;SDS011;64571;47.512;19.054;2023-05-10T03:21:44;14.20;;;4.18;;
75890;SDS011;64571;47.512;19.054;2023-05-10T03:24:55;7.35;;;4.15;;
75890;SDS011;64571;47.512;19.054;2023-05-10T03:28:01;8.80;;;4.32;;
75890;SDS011;64571;47.512;19.054;2023-05-10T03:31:04;7.93;;;3.93;;
75890;SDS011;64571;47.512;19.054;2023-05-10T03:34:08;7.65;;;3.62;;
75890;SDS011;64571;47.512;19.054;2023-05-10T03:37:10;7.85;;;4.03;;
75890;SDS011;64571;47.512;19.054;2023-05-10T03:40:13;9.45;;;4.65;;
75890;SDS011;64571;47.512;19.054;2023-05-10T03:43:17;12.23;;;4.32;;
75890;SDS011;64571;47.512;19.054;2023-05-10T03:46:20;7.77;;;3.90;;
75890;SDS011;64571;47.512;19.054;2023-05-10T03:49:22;8.40;;;3.92;;
75890;SDS011;64571;47.512;19.054;2023-05-10T03:52:25;8.10;;;3.67;;
75890;SDS011;64571;47.512;19.054;2023-05-10T03:55:28;8.63;;;4.07;;
75890;SDS011;64571;47.512;19.054;2023-05-10T03:58:31;6.93;;;3.97;;
75890;SDS011;64571;47.512;19.054;2023-05-10T04:01:34;10.27;;;4.20;;
75890;SDS011;64571;47.512;19.054;2023-05-10T04:04:37;10.73;;;4.28;;
75890;SDS011;64571;47.512;19.054;2023-05-10T04:07:40;8.63;;;4.50;;
75890;SDS011;64571;47.512;19.054;2023-05-10T04:10:42;8.50;;;4.28;;
75890;SDS011;64571;47.512;19.054;2023-05-10T04:13:45;8.48;;;4.07;;
75890;SDS011;64571;47.512;19.054;2023-05-10T04:16:48;8.30;;;4.27;;
75890;SDS011;64571;47.512;19.054;2023-05-10T04:19:50;8.48;;;4.50;;
75890;SDS011;64571;47.512;19.054;2023-05-10T04:22:55;8.68;;;4.55;;
75890;SDS011;64571;47.512;19.054;2023-05-10T04:26:01;9.90;;;4.90;;
75890;SDS011;64571;47.512;19.054;2023-05-10T04:29:05;7.72;;;4.20;;
75890;SDS011;64571;47.512;19.054;2023-05-10T04:32:07;9.33;;;4.60;;
75890;SDS011;64571;47.512;19.054;2023-05-10T04:35:10;7.47;;;4.15;;
75890;SDS011;64571;47.512;19.054;2023-05-10T04:38:12;12.02;;;4.68;;
75890;SDS011;64571;47.512;19.054;2023-05-10T04:41:15;20.98;;;6.03;;
75890;SDS011;64571;47.512;19.054;2023-05-10T04:44:17;10.63;;;4.90;;
75890;SDS011;64571;47.512;19.054;2023-05-10T04:47:20;8.87;;;4.40;;
75890;SDS011;64571;47.512;19.054;2023-05-10T04:50:22;9.40;;;5.10;;
75890;SDS011;64571;47.512;19.054;2023-05-10T04:53:25;10.02;;;4.90;;
75890;SDS011;64571;47.512;19.054;2023-05-10T04:56:28;9.82;;;5.15;;
75890;SDS011;64571;47.512;19.054;2023-05-10T04:59:30;9.65;;;5.15;;
75890;SDS011;64571;47.512;19.054;2023-05-10T05:02:33;7.83;;;4.73;;
75890;SDS011;64571;47.512;19.054;2023-05-10T05:05:36;8.43;;;5.05;;
75890;SDS011;64571;47.512;19.054;2023-05-10T05:08:38;9.38;;;4.90;;
75890;SDS011;64571;47.512;19.054;2023-05-10T05:11:40;9.25;;;5.20;;
75890;SDS011;64571;47.512;19.054;2023-05-10T05:14:43;9.32;;;4.93;;
75890;SDS011;64571;47.512;19.054;2023-05-10T05:17:46;9.33;;;4.93;;
75890;SDS011;64571;47.512;19.054;2023-05-10T05:20:48;10.07;;;4.95;;
75890;SDS011;64571;47.512;19.054;2023-05-10T05:23:51;10.20;;;5.37;;
75890;SDS011;64571;47.512;19.054;2023-05-10T05:26:53;10.18;;;5.40;;
75890;SDS011;64571;47.512;19.054;2023-05-10T05:29:56;8.55;;;4.85;;
75890;SDS011;64571;47.512;19.054;2023-05-10T05:32:59;11.20;;;5.47;;
75890;SDS011;64571;47.512;19.054;2023-05-10T05:36:02;10.65;;;4.37;;
75890;SDS011;64571;47.512;19.054;2023-05-10T05:39:08;11.38;;;5.20;;
75890;SDS011;64571;47.512;19.054;2023-05-10T05:42:11;7.90;;;4.57;;
75890;SDS011;64571;47.512;19.054;2023-05-10T05:45:15;12.75;;;4.87;;
75890;SDS011;64571;47.512;19.054;2023-05-10T05:48:18;9.70;;;5.10;;
75890;SDS011;64571;47.512;19.054;2023-05-10T05:51:20;8.63;;;4.80;;
75890;SDS011;64571;47.512;19.054;2023-05-10T05:54:23;10.63;;;5.12;;
75890;SDS011;64571;47.512;19.054;2023-05-10T05:57:25;9.98;;;4.95;;
75890;SDS011;64571;47.512;19.054;2023-05-10T06:00:28;10.13;;;4.55;;
75890;SDS011;64571;47.512;19.054;2023-05-10T06:03:31;8.13;;;4.63;;
75890;SDS011;64571;47.512;19.054;2023-05-10T06:06:34;11.82;;;5.00;;
75890;SDS011;64571;47.512;19.054;2023-05-10T06:09:37;9.57;;;5.10;;
75890;SDS011;64571;47.512;19.054;2023-05-10T06:12:39;7.72;;;4.55;;
75890;SDS011;64571;47.512;19.054;2023-05-10T06:15:42;9.95;;;5.25;;
75890;SDS011;64571;47.512;19.054;2023-05-10T06:18:45;7.80;;;4.53;;
75890;SDS011;64571;47.512;19.054;2023-05-10T06:21:47;7.47;;;4.15;;
75890;SDS011;64571;47.512;19.054;2023-05-10T06:24:50;9.32;;;5.25;;
75890;SDS011;64571;47.512;19.054;2023-05-10T06:27:52;11.00;;;5.30;;
75890;SDS011;64571;47.512;19.054;2023-05-10T06:30:59;10.32;;;5.00;;
75890;SDS011;64571;47.512;19.054;2023-05-10T06:34:02;8.93;;;4.90;;
75890;SDS011;64571;47.512;19.054;2023-05-10T06:37:04;7.85;;;4.70;;
75890;SDS011;64571;47.512;19.054;2023-05-10T06:40:07;9.30;;;5.20;;
75890;SDS011;64571;47.512;19.054;2023-05-10T06:43:10;8.60;;;4.85;;
75890;SDS011;64571;47.512;19.054;2023-05-10T06:46:13;9.23;;;5.55;;
75890;SDS011;64571;47.512;19.054;2023-05-10T06:49:15;8.57;;;4.93;;
75890;SDS011;64571;47.512;19.054;2023-05-10T06:52:18;9.90;;;5.18;;
75890;SDS011;64571;47.512;19.054;2023-05-10T06:55:20;10.75;;;5.22;;
75890;SDS011;64571;47.512;19.054;2023-05-10T06:58:23;8.57;;;4.97;;
75890;SDS011;64571;47.512;19.054;2023-05-10T07:01:26;8.75;;;5.45;;
75890;SDS011;64571;47.512;19.054;2023-05-10T07:04:28;8.07;;;4.60;;
75890;SDS011;64571;47.512;19.054;2023-05-10T07:07:31;8.50;;;4.80;;
75890;SDS011;64571;47.512;19.054;2023-05-10T07:10:33;8.55;;;4.82;;
75890;SDS011;64571;47.512;19.054;2023-05-10T07:13:36;8.70;;;4.57;;
75890;SDS011;64571;47.512;19.054;2023-05-10T07:16:41;7.95;;;4.47;;
75890;SDS011;64571;47.512;19.054;2023-05-10T07:19:44;8.20;;;5.70;;
75890;SDS011;64571;47.512;19.054;2023-05-10T07:22:46;9.02;;;4.60;;
75890;SDS011;64571;47.512;19.054;2023-05-10T07:25:49;11.07;;;5.45;;
75890;SDS011;64571;47.512;19.054;2023-05-10T07:28:54;13.85;;;4.82;;
75890;SDS011;64571;47.512;19.054;2023-05-10T07:31:57;8.02;;;4.95;;
75890;SDS011;64571;47.512;19.054;2023-05-10T07:35:00;9.43;;;4.60;;
75890;SDS011;64571;47.512;19.054;2023-05-10T07:38:03;7.60;;;4.80;;
75890;SDS011;64571;47.512;19.054;2023-05-10T07:41:05;10.52;;;4.68;;
75890;SDS011;64571;47.512;19.054;2023-05-10T07:44:08;7.93;;;4.65;;
75890;SDS011;64571;47.512;19.054;2023-05-10T07:47:10;15.73;;;5.03;;
75890;SDS011;64571;47.512;19.054;2023-05-10T07:50:13;12.47;;;4.57;;
75890;SDS011;64571;47.512;19.054;2023-05-10T07:53:16;8.10;;;4.10;;
75890;SDS011;64571;47.512;19.054;2023-05-10T07:56:24;16.42;;;10.05;;
75890;SDS011;64571;47.512;19.054;2023-05-10T07:59:29;10.70;;;5.60;;
75890;SDS011;64571;47.512;19.054;2023-05-10T08:02:32;9.20;;;4.70;;
75890;SDS011;64571;47.512;19.054;2023-05-10T08:05:35;7.40;;;4.57;;
75890;SDS011;64571;47.512;19.054;2023-05-10T08:08:38;13.82;;;7.32;;
75890;SDS011;64571;47.512;19.054;2023-05-10T08:11:40;6.80;;;4.28;;
75890;SDS011;64571;47.512;19.054;2023-05-10T08:14:43;7.03;;;3.80;;
75890;SDS011;64571;47.512;19.054;2023-05-10T08:17:45;7.25;;;3.90;;
75890;SDS011;64571;47.512;19.054;2023-05-10T08:20:48;6.90;;;3.67;;
75890;SDS011;64571;47.512;19.054;2023-05-10T08:23:51;7.07;;;3.70;;
75890;SDS011;64571;47.512;19.054;2023-05-10T08:26:53;7.90;;;4.47;;
75890;SDS011;64571;47.512;19.054;2023-05-10T08:29:56;7.93;;;4.65;;
75890;SDS011;64571;47.512;19.054;2023-05-10T08:32:58;8.48;;;3.85;;
75890;SDS011;64571;47.512;19.054;2023-05-10T08:36:01;6.97;;;3.80;;
75890;SDS011;64571;47.512;19.054;2023-05-10T08:39:04;8.73;;;4.47;;
75890;SDS011;64571;47.512;19.054;2023-05-10T08:42:19;8.57;;;4.25;;
75890;SDS011;64571;47.512;19.054;2023-05-10T08:45:24;7.55;;;4.00;;
75890;SDS011;64571;47.512;19.054;2023-05-10T08:48:30;6.68;;;3.90;;
75890;SDS011;64571;47.512;19.054;2023-05-10T08:51:36;7.57;;;3.77;;
75890;SDS011;64571;47.512;19.054;2023-05-10T08:54:45;6.35;;;3.70;;
75890;SDS011;64571;47.512;19.054;2023-05-10T08:57:47;10.27;;;4.85;;
75890;SDS011;64571;47.512;19.054;2023-05-10T09:00:50;7.53;;;4.10;;
75890;SDS011;64571;47.512;19.054;2023-05-10T09:03:55;8.30;;;4.05;;
75890;SDS011;64571;47.512;19.054;2023-05-10T09:06:58;7.33;;;4.10;;
75890;SDS011;64571;47.512;19.054;2023-05-10T09:10:01;8.45;;;4.03;;
75890;SDS011;64571;47.512;19.054;2023-05-10T09:13:05;8.57;;;4.00;;
75890;SDS011;64571;47.512;19.054;2023-05-10T09:16:09;12.93;;;3.87;;
75890;SDS011;64571;47.512;19.054;2023-05-10T09:19:23;6.93;;;3.87;;
75890;SDS011;64571;47.512;19.054;2023-05-10T09:22:26;5.90;;;3.17;;
75890;SDS011;64571;47.512;19.054;2023-05-10T09:25:29;7.32;;;3.85;;
75890;SDS011;64571;47.512;19.054;2023-05-10T09:28:32;7.50;;;3.55;;
75890;SDS011;64571;47.512;19.054;2023-05-10T09:31:48;10.80;;;3.67;;
75890;SDS011;64571;47.512;19.054;2023-05-10T09:34:57;7.82;;;4.25;;
75890;SDS011;64571;47.512;19.054;2023-05-10T09:38:08;8.27;;;3.57;;
75890;SDS011;64571;47.512;19.054;2023-05-10T09:41:17;7.25;;;3.70;;
75890;SDS011;64571;47.512;19.054;2023-05-10T09:44:21;6.80;;;3.65;;
75890;SDS011;64571;47.512;19.054;2023-05-10T09:47:23;11.45;;;3.83;;
75890;SDS011;64571;47.512;19.054;2023-05-10T09:50:28;8.38;;;4.03;;
75890;SDS011;64571;47.512;19.054;2023-05-10T09:53:31;8.80;;;4.10;;
75890;SDS011;64571;47.512;19.054;2023-05-10T09:56:34;9.90;;;4.12;;
75890;SDS011;64571;47.512;19.054;2023-05-10T09:59:42;7.18;;;3.83;;
75890;SDS011;64571;47.512;19.054;2023-05-10T10:02:46;7.43;;;3.87;;
75890;SDS011;64571;47.512;19.054;2023-05-10T10:05:50;7.50;;;4.03;;
75890;SDS011;64571;47.512;19.054;2023-05-10T10:08:54;5.90;;;3.50;;
75890;SDS011;64571;47.512;19.054;2023-05-10T10:11:59;6.15;;;3.78;;
75890;SDS011;64571;47.512;19.054;2023-05-10T10:15:04;7.55;;;3.60;;
75890;SDS011;64571;47.512;19.054;2023-05-10T10:18:11;7.57;;;3.60;;
75890;SDS011;64571;47.512;19.054;2023-05-10T10:21:16;6.62;;;4.07;;
75890;SDS011;64571;47.512;19.054;2023-05-10T10:24:19;6.27;;;3.23;;
75890;SDS011;64571;47.512;19.054;2023-05-10T10:27:27;5.75;;;2.83;;
75890;SDS011;64571;47.512;19.054;2023-05-10T10:34:05;6.78;;;3.22;;
75890;SDS011;64571;47.512;19.054;2023-05-10T10:37:09;6.30;;;3.30;;
75890;SDS011;64571;47.512;19.054;2023-05-10T10:43:29;5.65;;;2.72;;
75890;SDS011;64571;47.512;19.054;2023-05-10T10:46:32;8.43;;;2.50;;
75890;SDS011;64571;47.512;19.054;2023-05-10T10:52:45;5.50;;;2.67;;
75890;SDS011;64571;47.512;19.054;2023-05-10T10:55:48;6.53;;;3.00;;
75890;SDS011;64571;47.512;19.054;2023-05-10T10:58:51;7.20;;;2.78;;
75890;SDS011;64571;47.512;19.054;2023-05-10T11:01:55;6.47;;;3.58;;
75890;SDS011;64571;47.512;19.054;2023-05-10T11:04:57;7.05;;;2.85;;
75890;SDS011;64571;47.512;19.054;2023-05-10T11:08:01;6.20;;;3.08;;
75890;SDS011;64571;47.512;19.054;2023-05-10T11:11:16;5.77;;;2.60;;
75890;SDS011;64571;47.512;19.054;2023-05-10T11:14:20;5.95;;;2.47;;
75890;SDS011;64571;47.512;19.054;2023-05-10T11:17:27;10.20;;;2.70;;
75890;SDS011;64571;47.512;19.054;2023-05-10T11:20:38;5.62;;;2.97;;
75890;SDS011;64571;47.512;19.054;2023-05-10T11:23:48;8.55;;;3.10;;
75890;SDS011;64571;47.512;19.054;2023-05-10T11:26:52;5.67;;;2.40;;
75890;SDS011;64571;47.512;19.054;2023-05-10T11:29:56;7.82;;;2.40;;
75890;SDS011;64571;47.512;19.054;2023-05-10T11:32:59;5.68;;;2.62;;
75890;SDS011;64571;47.512;19.054;2023-05-10T11:36:01;5.53;;;2.53;;
75890;SDS011;64571;47.512;19.054;2023-05-10T11:39:05;5.60;;;2.58;;
75890;SDS011;64571;47.512;19.054;2023-05-10T11:42:08;5.30;;;2.60;;
75890;SDS011;64571;47.512;19.054;2023-05-10T11:45:11;4.90;;;2.42;;
75890;SDS011;64571;47.512;19.054;2023-05-10T11:48:14;6.20;;;3.78;;
75890;SDS011;64571;47.512;19.054;2023-05-10T11:51:22;8.40;;;2.47;;
75890;SDS011;64571;47.512;19.054;2023-05-10T11:54:25;6.20;;;2.70;;
75890;SDS011;64571;47.512;19.054;2023-05-10T11:57:28;4.80;;;2.40;;
75890;SDS011;64571;47.512;19.054;2023-05-10T12:00:30;7.20;;;2.70;;
75890;SDS011;64571;47.512;19.054;2023-05-10T12:03:34;6.85;;;2.30;;
75890;SDS011;64571;47.512;19.054;2023-05-10T12:06:39;6.53;;;2.58;;
75890;SDS011;64571;47.512;19.054;2023-05-10T12:09:43;6.40;;;2.60;;
75890;SDS011;64571;47.512;19.054;2023-05-10T12:12:46;5.60;;;2.40;;
75890;SDS011;64571;47.512;19.054;2023-05-10T12:15:50;5.43;;;2.92;;
75890;SDS011;64571;47.512;19.054;2023-05-10T12:18:56;6.70;;;2.42;;
75890;SDS011;64571;47.512;19.054;2023-05-10T12:22:00;7.60;;;2.50;;
75890;SDS011;64571;47.512;19.054;2023-05-10T12:25:08;4.57;;;2.20;;
75890;SDS011;64571;47.512;19.054;2023-05-10T12:28:11;7.97;;;2.50;;
75890;SDS011;64571;47.512;19.054;2023-05-10T12:31:13;7.00;;;2.45;;
75890;SDS011;64571;47.512;19.054;2023-05-10T12:37:31;5.45;;;2.53;;
75890;SDS011;64571;47.512;19.054;2023-05-10T12:40:38;5.05;;;2.35;;
75890;SDS011;64571;47.512;19.054;2023-05-10T12:43:40;5.67;;;2.30;;
75890;SDS011;64571;47.512;19.054;2023-05-10T12:46:43;7.90;;;2.20;;
75890;SDS011;64571;47.512;19.054;2023-05-10T12:49:46;5.93;;;2.40;;
75890;SDS011;64571;47.512;19.054;2023-05-10T12:52:48;9.95;;;5.07;;
75890;SDS011;64571;47.512;19.054;2023-05-10T12:55:51;6.53;;;2.20;;
75890;SDS011;64571;47.512;19.054;2023-05-10T12:58:54;6.00;;;2.00;;
75890;SDS011;64571;47.512;19.054;2023-05-10T13:01:57;5.87;;;2.10;;
75890;SDS011;64571;47.512;19.054;2023-05-10T13:05:00;12.50;;;3.75;;
75890;SDS011;64571;47.512;19.054;2023-05-10T13:08:03;5.18;;;2.25;;
75890;SDS011;64571;47.512;19.054;2023-05-10T13:11:05;6.05;;;2.50;;
75890;SDS011;64571;47.512;19.054;2023-05-10T13:14:08;5.23;;;2.30;;
75890;SDS011;64571;47.512;19.054;2023-05-10T13:17:11;5.57;;;3.37;;
75890;SDS011;64571;47.512;19.054;2023-05-10T13:20:13;4.50;;;2.15;;
75890;SDS011;64571;47.512;19.054;2023-05-10T13:23:17;3.80;;;1.60;;
75890;SDS011;64571;47.512;19.054;2023-05-10T13:26:19;6.60;;;2.35;;
75890;SDS011;64571;47.512;19.054;2023-05-10T13:29:22;7.50;;;3.20;;
75890;SDS011;64571;47.512;19.054;2023-05-10T13:32:25;8.27;;;2.33;;
75890;SDS011;64571;47.512;19.054;2023-05-10T13:35:28;7.97;;;2.90;;
75890;SDS011;64571;47.512;19.054;2023-05-10T13:38:30;4.62;;;1.90;;
75890;SDS011;64571;47.512;19.054;2023-05-10T13:41:33;5.62;;;2.30;;
75890;SDS011;64571;47.512;19.054;2023-05-10T13:44:36;6.13;;;2.30;;
75890;SDS011;64571;47.512;19.054;2023-05-10T13:47:40;5.03;;;2.37;;
75890;SDS011;64571;47.512;19.054;2023-05-10T13:50:43;5.10;;;2.20;;
75890;SDS011;64571;47.512;19.054;2023-05-10T13:53:46;7.22;;;2.35;;
75890;SDS011;64571;47.512;19.054;2023-05-10T13:56:49;5.47;;;2.20;;
75890;SDS011;64571;47.512;19.054;2023-05-10T13:59:51;5.10;;;2.17;;
75890;SDS011;64571;47.512;19.054;2023-05-10T14:02:55;5.10;;;1.98;;
75890;SDS011;64571;47.512;19.054;2023-05-10T14:05:58;5.05;;;1.80;;
75890;SDS011;64571;47.512;19.054;2023-05-10T14:09:00;4.40;;;1.67;;
75890;SDS011;64571;47.512;19.054;2023-05-10T14:12:03;5.87;;;2.37;;
75890;SDS011;64571;47.512;19.054;2023-05-10T14:15:06;5.77;;;2.37;;
75890;SDS011;64571;47.512;19.054;2023-05-10T14:18:09;4.62;;;1.75;;
75890;SDS011;64571;47.512;19.054;2023-05-10T14:21:12;4.03;;;1.90;;
75890;SDS011;64571;47.512;19.054;2023-05-10T14:24:15;5.82;;;2.12;;
75890;SDS011;64571;47.512;19.054;2023-05-10T14:27:17;7.80;;;2.10;;
75890;SDS011;64571;47.512;19.054;2023-05-10T14:30:20;6.33;;;1.90;;
75890;SDS011;64571;47.512;19.054;2023-05-10T14:33:22;5.90;;;1.92;;
75890;SDS011;64571;47.512;19.054;2023-05-10T14:36:25;5.57;;;1.67;;
75890;SDS011;64571;47.512;19.054;2023-05-10T14:39:28;5.30;;;1.95;;
75890;SDS011;64571;47.512;19.054;2023-05-10T14:42:34;5.82;;;1.80;;
75890;SDS011;64571;47.512;19.054;2023-05-10T14:45:36;5.43;;;1.93;;
75890;SDS011;64571;47.512;19.054;2023-05-10T14:48:39;8.65;;;1.52;;
75890;SDS011;64571;47.512;19.054;2023-05-10T14:51:41;7.30;;;1.77;;
75890;SDS011;64571;47.512;19.054;2023-05-10T14:54:44;4.07;;;1.55;;
75890;SDS011;64571;47.512;19.054;2023-05-10T14:57:47;6.65;;;1.95;;
75890;SDS011;64571;47.512;19.054;2023-05-10T15:00:51;4.70;;;2.07;;
75890;SDS011;64571;47.512;19.054;2023-05-10T15:03:54;6.78;;;1.80;;
75890;SDS011;64571;47.512;19.054;2023-05-10T15:06:57;4.87;;;2.00;;
75890;SDS011;64571;47.512;19.054;2023-05-10T15:10:01;4.87;;;1.83;;
75890;SDS011;64571;47.512;19.054;2023-05-10T15:13:04;5.57;;;2.72;;
75890;SDS011;64571;47.512;19.054;2023-05-10T15:16:06;4.53;;;1.93;;
75890;SDS011;64571;47.512;19.054;2023-05-10T15:19:09;4.93;;;1.60;;
75890;SDS011;64571;47.512;19.054;2023-05-10T15:22:12;6.45;;;2.10;;
75890;SDS011;64571;47.512;19.054;2023-05-10T15:25:14;8.20;;;2.10;;
75890;SDS011;64571;47.512;19.054;2023-05-10T15:28:18;6.20;;;2.55;;
75890;SDS011;64571;47.512;19.054;2023-05-10T15:31:20;5.17;;;2.30;;
75890;SDS011;64571;47.512;19.054;2023-05-10T15:34:23;5.00;;;1.73;;
75890;SDS011;64571;47.512;19.054;2023-05-10T15:37:26;5.55;;;1.98;;
75890;SDS011;64571;47.512;19.054;2023-05-10T15:40:28;5.68;;;2.00;;
75890;SDS011;64571;47.512;19.054;2023-05-10T15:43:31;5.40;;;2.12;;
75890;SDS011;64571;47.512;19.054;2023-05-10T15:46:33;6.40;;;2.30;;
75890;SDS011;64571;47.512;19.054;2023-05-10T15:49:36;8.02;;;2.50;;
75890;SDS011;64571;47.512;19.054;2023-05-10T15:52:38;8.63;;;3.67;;
75890;SDS011;64571;47.512;19.054;2023-05-10T15:55:41;16.98;;;3.30;;
75890;SDS011;64571;47.512;19.054;2023-05-10T15:58:43;6.80;;;2.60;;
75890;SDS011;64571;47.512;19.054;2023-05-10T16:01:46;7.93;;;2.20;;
75890;SDS011;64571;47.512;19.054;2023-05-10T16:04:49;4.30;;;1.58;;
75890;SDS011;64571;47.512;19.054;2023-05-10T16:07:52;4.70;;;1.73;;
75890;SDS011;64571;47.512;19.054;2023-05-10T16:10:56;4.30;;;2.03;;
75890;SDS011;64571;47.512;19.054;2023-05-10T16:13:58;5.28;;;2.15;;
75890;SDS011;64571;47.512;19.054;2023-05-10T16:17:01;4.63;;;2.03;;
75890;SDS011;64571;47.512;19.054;2023-05-10T16:20:05;4.85;;;2.10;;
75890;SDS011;64571;47.512;19.054;2023-05-10T16:23:09;5.12;;;2.15;;
75890;SDS011;64571;47.512;19.054;2023-05-10T16:26:12;5.70;;;2.15;;
75890;SDS011;64571;47.512;19.054;2023-05-10T16:29:14;5.10;;;2.10;;
75890;SDS011;64571;47.512;19.054;2023-05-10T16:32:17;4.30;;;1.70;;
75890;SDS011;64571;47.512;19.054;2023-05-10T16:35:20;4.53;;;2.20;;
75890;SDS011;64571;47.512;19.054;2023-05-10T16:38:24;18.77;;;2.53;;
75890;SDS011;64571;47.512;19.054;2023-05-10T16:41:27;6.10;;;2.00;;
75890;SDS011;64571;47.512;19.054;2023-05-10T16:44:30;6.85;;;2.05;;
75890;SDS011;64571;47.512;19.054;2023-05-10T16:47:33;4.47;;;2.03;;
75890;SDS011;64571;47.512;19.054;2023-05-10T16:50:37;6.15;;;2.53;;
75890;SDS011;64571;47.512;19.054;2023-05-10T16:53:40;6.55;;;2.47;;
75890;SDS011;64571;47.512;19.054;2023-05-10T16:56:42;19.12;;;3.40;;
75890;SDS011;64571;47.512;19.054;2023-05-10T16:59:45;8.43;;;3.60;;
75890;SDS011;64571;47.512;19.054;2023-05-10T17:02:48;6.20;;;2.70;;
75890;SDS011;64571;47.512;19.054;2023-05-10T17:05:50;6.90;;;2.60;;
75890;SDS011;64571;47.512;19.054;2023-05-10T17:08:53;6.53;;;3.15;;
75890;SDS011;64571;47.512;19.054;2023-05-10T17:11:56;10.10;;;2.95;;
75890;SDS011;64571;47.512;19.054;2023-05-10T17:14:58;8.05;;;3.10;;
75890;SDS011;64571;47.512;19.054;2023-05-10T17:18:01;7.03;;;2.97;;
75890;SDS011;64571;47.512;19.054;2023-05-10T17:21:04;6.62;;;2.50;;
75890;SDS011;64571;47.512;19.054;2023-05-10T17:24:07;8.10;;;2.40;;
75890;SDS011;64571;47.512;19.054;2023-05-10T17:27:09;8.60;;;2.62;;
75890;SDS011;64571;47.512;19.054;2023-05-10T17:30:12;9.43;;;2.80;;
75890;SDS011;64571;47.512;19.054;2023-05-10T17:33:16;7.43;;;2.97;;
75890;SDS011;64571;47.512;19.054;2023-05-10T17:36:18;8.65;;;2.62;;
75890;SDS011;64571;47.512;19.054;2023-05-10T17:39:21;8.45;;;3.50;;
75890;SDS011;64571;47.512;19.054;2023-05-10T17:42:23;6.60;;;2.87;;
75890;SDS011;64571;47.512;19.054;2023-05-10T17:45:26;8.70;;;3.58;;
75890;SDS011;64571;47.512;19.054;2023-05-10T17:48:28;6.53;;;3.00;;
75890;SDS011;64571;47.512;19.054;2023-05-10T17:51:31;8.35;;;3.15;;
75890;SDS011;64571;47.512;19.054;2023-05-10T17:54:34;6.60;;;2.70;;
75890;SDS011;64571;47.512;19.054;2023-05-10T17:57:37;8.85;;;3.80;;
75890;SDS011;64571;47.512;19.054;2023-05-10T18:00:40;9.15;;;2.70;;
75890;SDS011;64571;47.512;19.054;2023-05-10T18:03:42;10.27;;;3.07;;
75890;SDS011;64571;47.512;19.054;2023-05-10T18:06:45;8.35;;;3.03;;
75890;SDS011;64571;47.512;19.054;2023-05-10T18:09:47;7.07;;;2.80;;
75890;SDS011;64571;47.512;19.054;2023-05-10T18:12:50;9.77;;;3.28;;
75890;SDS011;64571;47.512;19.054;2023-05-10T18:15:53;8.80;;;3.47;;
75890;SDS011;64571;47.512;19.054;2023-05-10T18:18:56;7.43;;;3.00;;
75890;SDS011;64571;47.512;19.054;2023-05-10T18:21:59;7.35;;;2.85;;
75890;SDS011;64571;47.512;19.054;2023-05-10T18:25:01;6.35;;;2.97;;
75890;SDS011;64571;47.512;19.054;2023-05-10T18:28:04;5.97;;;2.65;;
75890;SDS011;64571;47.512;19.054;2023-05-10T18:31:08;7.82;;;3.28;;
75890;SDS011;64571;47.512;19.054;2023-05-10T18:34:11;7.57;;;2.93;;
75890;SDS011;64571;47.512;19.054;2023-05-10T18:37:14;6.60;;;2.65;;
75890;SDS011;64571;47.512;19.054;2023-05-10T18:40:16;5.87;;;2.60;;
75890;SDS011;64571;47.512;19.054;2023-05-10T18:43:20;7.55;;;2.92;;
75890;SDS011;64571;47.512;19.054;2023-05-10T18:46:23;5.47;;;2.78;;